Time;durP1;ratioP1;P1;durP2;ratioP2;P2;SDS_P1;SDS_P2;PMS_P1;PMS_P2;Temp;Humidity;BMP_temperature;BMP_pressure;BME280_temperature;BME280_humidity;BME280_pressure;Samples;Min_cycle;Max_cycle;Signal;HPM_P1;HPM_P2
2023/03/05 00:01:45;;;;;;;1.20;0.20;;;;;;;-0.90;48.73;100318.16;4965915;28;20517;-77
2023/03/05 00:04:14;;;;;;;2.35;0.00;;;;;;;-0.91;48.23;100327.53;4966887;28;20046;-76
2023/03/05 00:06:41;;;;;;;1.75;0.00;;;;;;;-0.93;48.87;100318.94;4963545;28;20043;-77
2023/03/05 00:09:08;;;;;;;2.75;0.00;;;;;;;-0.98;48.50;100307.72;4959044;28;20055;-76
2023/03/05 00:11:36;;;;;;;0.38;0.10;;;;;;;-0.95;48.56;100332.56;4966602;28;20055;-76
2023/03/05 00:14:05;;;;;;;0.47;0.10;;;;;;;-0.95;48.35;100317.19;4962579;28;20062;-77
2023/03/05 00:16:32;;;;;;;4.60;0.00;;;;;;;-0.98;49.02;100327.38;4962366;28;20047;-75
2023/03/05 00:19:00;;;;;;;3.15;0.00;;;;;;;-0.99;48.67;100316.25;4964900;28;20070;-76
2023/03/05 00:21:29;;;;;;;0.20;0.08;;;;;;;-1.01;48.93;100319.63;4960884;28;20047;-76
2023/03/05 00:23:57;;;;;;;2.75;0.10;;;;;;;-1.01;49.23;100317.06;4960643;28;20061;-76
2023/03/05 00:26:26;;;;;;;1.17;0.00;;;;;;;-1.02;48.80;100320.47;4962428;28;20058;-77
2023/03/05 00:28:53;;;;;;;0.20;0.00;;;;;;;-1.02;48.88;100320.47;4963812;28;20055;-77
2023/03/05 00:31:24;;;;;;;0.20;0.10;;;;;;;-1.04;48.98;100322.13;4962655;28;20057;-76
2023/03/05 00:33:52;;;;;;;3.10;0.10;;;;;;;-1.07;49.25;100320.34;4962212;28;20514;-76
2023/03/05 00:36:19;;;;;;;0.20;0.10;;;;;;;-1.11;49.14;100315.13;4962523;28;20055;-76
2023/03/05 00:38:46;;;;;;;0.50;0.10;;;;;;;-1.10;48.94;100319.44;4960463;28;20051;-76
2023/03/05 00:41:14;;;;;;;0.57;0.10;;;;;;;-1.08;49.41;100315.19;4960260;28;20054;-76
2023/03/05 00:43:40;;;;;;;1.30;0.00;;;;;;;-1.11;49.45;100320.25;4959678;28;20483;-75
2023/03/05 00:46:07;;;;;;;8.48;0.10;;;;;;;-1.18;49.28;100309.88;4962546;28;20062;-76
2023/03/05 00:48:36;;;;;;;0.85;0.10;;;;;;;-1.20;49.24;100305.53;4961570;28;20114;-76
2023/03/05 00:51:03;;;;;;;0.90;0.10;;;;;;;-1.16;49.64;100313.34;4962259;28;20174;-76
2023/03/05 00:53:30;;;;;;;0.52;0.00;;;;;;;-1.19;49.44;100313.28;4964616;28;20057;-77
2023/03/05 00:55:58;;;;;;;0.70;0.00;;;;;;;-1.19;49.11;100317.53;4960661;28;20047;-76
2023/03/05 00:58:24;;;;;;;2.47;0.05;;;;;;;-1.18;49.82;100309.88;4966081;28;20054;-75
2023/03/05 01:00:51;;;;;;;0.70;0.00;;;;;;;-1.22;49.49;100297.84;4963418;28;20043;-76
2023/03/05 01:03:18;;;;;;;1.75;0.10;;;;;;;-1.20;49.40;100308.97;4965306;28;20055;-76
2023/03/05 01:05:47;;;;;;;2.13;0.35;;;;;;;-1.22;49.76;100302.97;4964404;28;20047;-77
2023/03/05 01:08:14;;;;;;;1.27;0.08;;;;;;;-1.21;49.86;100303.81;4964116;28;20054;-76
2023/03/05 01:10:41;;;;;;;2.28;0.00;;;;;;;-1.26;49.53;100296.00;4962861;28;20652;-77
2023/03/05 01:13:08;;;;;;;0.88;0.08;;;;;;;-1.23;49.49;100300.34;4958453;28;20058;-77
2023/03/05 01:15:35;;;;;;;2.35;0.22;;;;;;;-1.24;49.80;100301.19;4961899;28;20377;-76
2023/03/05 01:18:02;;;;;;;1.48;0.00;;;;;;;-1.27;49.50;100298.56;4961085;28;20061;-77
2023/03/05 01:20:29;;;;;;;0.10;0.00;;;;;;;-1.27;49.88;100296.88;4960803;28;20426;-77
2023/03/05 01:22:58;;;;;;;0.40;0.05;;;;;;;-1.36;49.93;100283.84;4963552;28;20080;-77
2023/03/05 01:25:25;;;;;;;1.88;0.10;;;;;;;-1.31;50.27;100287.38;4966489;28;20054;-76
2023/03/05 01:27:52;;;;;;;2.05;0.00;;;;;;;-1.31;50.02;100292.50;4967025;28;20047;-76
2023/03/05 01:30:19;;;;;;;0.15;0.08;;;;;;;-1.37;49.85;100277.88;4966833;28;20137;-76
2023/03/05 01:32:46;;;;;;;0.95;0.10;;;;;;;-1.33;50.00;100289.03;4972040;28;20142;-77
2023/03/05 01:35:17;;;;;;;1.83;0.05;;;;;;;-1.35;49.87;100280.44;4964764;28;20157;-77
2023/03/05 01:37:44;;;;;;;2.78;0.10;;;;;;;-1.36;50.16;100273.59;4963089;28;20477;-76
2023/03/05 01:40:16;;;;;;;0.75;0.00;;;;;;;-1.64;49.69;100231.16;4969466;28;20050;-77
2023/03/05 01:42:45;;;;;;;0.15;0.00;;;;;;;-1.44;50.61;100265.75;4966304;28;20047;-76
2023/03/05 01:45:15;;;;;;;1.42;0.00;;;;;;;-1.39;49.96;100273.53;4963951;28;20050;-77
2023/03/05 01:47:42;;;;;;;1.38;0.10;;;;;;;-1.42;50.29;100274.34;4967670;28;20507;-77
2023/03/05 01:50:12;;;;;;;0.10;0.00;;;;;;;-1.50;50.05;100252.81;4969154;28;20047;-77
2023/03/05 01:52:43;;;;;;;1.55;0.10;;;;;;;-1.43;50.04;100267.47;4969679;28;20157;-76
2023/03/05 01:55:15;;;;;;;1.67;0.10;;;;;;;-1.43;50.43;100271.72;4970427;28;20070;-76
2023/03/05 01:57:44;;;;;;;0.68;0.10;;;;;;;-1.47;49.83;100264.81;4968390;28;20051;-76
2023/03/05 02:00:14;;;;;;;0.25;0.10;;;;;;;-1.46;50.18;100266.53;4967089;28;20079;-76
2023/03/05 02:02:43;;;;;;;2.42;0.00;;;;;;;-1.46;50.33;100271.66;4970844;28;20132;-76
2023/03/05 02:05:13;;;;;;;2.72;0.10;;;;;;;-1.58;50.55;100250.06;4972482;28;20055;-76
2023/03/05 02:07:41;;;;;;;0.13;0.00;;;;;;;-1.48;50.33;100270.75;4966766;28;20051;-76
2023/03/05 02:10:18;;;;;;;2.05;0.10;;;;;;;-1.50;50.70;100257.06;4966066;28;20134;-76
2023/03/05 02:12:46;;;;;;;0.40;0.10;;;;;;;-1.58;50.44;100241.53;4972330;28;20058;-77
2023/03/05 02:15:13;;;;;;;2.83;0.05;;;;;;;-1.51;50.32;100258.75;4968757;28;20054;-76
2023/03/05 02:17:40;;;;;;;1.48;0.03;;;;;;;-1.51;50.37;100257.88;4969705;28;20047;-76
2023/03/05 02:20:10;;;;;;;0.00;0.00;;;;;;;-1.52;50.46;100257.03;4971543;28;20051;-76
2023/03/05 02:22:38;;;;;;;1.05;0.05;;;;;;;-1.53;50.35;100259.56;4966844;28;20411;-76
2023/03/05 02:25:14;;;;;;;1.42;0.13;;;;;;;-1.54;50.83;100252.69;4968158;28;20055;-77
2023/03/05 02:27:44;;;;;;;0.22;0.00;;;;;;;-1.55;50.69;100256.09;4967332;28;20055;-77
2023/03/05 02:30:13;;;;;;;1.23;0.17;;;;;;;-1.62;50.70;100239.75;4965742;28;20435;-78
2023/03/05 02:32:39;;;;;;;2.17;0.00;;;;;;;-1.61;50.55;100242.31;4967439;28;20047;-77
2023/03/05 02:35:07;;;;;;;3.22;0.10;;;;;;;-1.58;50.62;100246.66;4964158;28;20055;-76
2023/03/05 02:37:34;;;;;;;0.85;0.05;;;;;;;-1.61;51.29;100247.44;4965775;28;20133;-76
2023/03/05 02:40:03;;;;;;;3.03;0.10;;;;;;;-1.60;50.94;100243.19;4966069;28;20054;-76
2023/03/05 02:42:32;;;;;;;0.47;0.00;;;;;;;-1.67;50.82;100241.34;4961726;28;20059;-77
2023/03/05 02:44:59;;;;;;;0.10;0.00;;;;;;;-1.63;50.78;100253.34;4967304;28;20051;-76
2023/03/05 02:47:26;;;;;;;2.63;0.03;;;;;;;-1.69;50.67;100236.16;4966423;28;20058;-76
2023/03/05 02:49:53;;;;;;;1.98;0.00;;;;;;;-1.67;51.09;100231.94;4961644;28;20154;-77
2023/03/05 02:52:22;;;;;;;0.32;0.00;;;;;;;-1.66;50.94;100238.78;4966382;28;20721;-76
2023/03/05 02:54:49;;;;;;;1.45;0.15;;;;;;;-1.67;50.94;100239.63;4969047;28;20093;-77
2023/03/05 02:57:17;;;;;;;0.15;0.00;;;;;;;-1.69;51.16;100238.72;4967020;28;20102;-76
2023/03/05 02:59:45;;;;;;;1.55;0.22;;;;;;;-1.69;51.17;100231.03;4967011;28;20074;-76
2023/03/05 03:02:12;;;;;;;0.10;0.00;;;;;;;-1.78;51.10;100228.28;4963837;28;20533;-76
2023/03/05 03:04:39;;;;;;;0.57;0.00;;;;;;;-1.72;51.34;100240.34;4963972;28;20053;-76
2023/03/05 03:07:06;;;;;;;1.67;0.25;;;;;;;-1.75;51.29;100238.59;4962475;28;20048;-76
2023/03/05 03:09:34;;;;;;;0.20;0.10;;;;;;;-1.75;51.18;100235.16;4963454;28;20047;-77
2023/03/05 03:12:02;;;;;;;2.50;0.10;;;;;;;-1.75;51.28;100237.72;4964160;28;20121;-77
2023/03/05 03:14:32;;;;;;;0.88;0.10;;;;;;;-1.78;50.88;100235.97;4963366;28;20061;-77
2023/03/05 03:16:59;;;;;;;0.68;0.00;;;;;;;-1.88;50.91;100218.66;4965462;28;20051;-76
2023/03/05 03:19:26;;;;;;;0.60;0.00;;;;;;;-1.79;51.56;100230.78;4963857;28;20050;-77
2023/03/05 03:21:53;;;;;;;0.40;0.10;;;;;;;-1.81;51.04;100228.22;4965008;28;20057;-77
2023/03/05 03:24:21;;;;;;;1.23;0.10;;;;;;;-1.81;51.38;100230.78;4964192;28;20051;-77
2023/03/05 03:26:48;;;;;;;0.20;0.00;;;;;;;-1.82;51.58;100224.78;4963235;28;20051;-77
2023/03/05 03:29:16;;;;;;;2.13;0.10;;;;;;;-1.82;51.50;100223.94;4966747;28;20050;-77
2023/03/05 03:31:44;;;;;;;4.13;0.10;;;;;;;-1.82;51.61;100221.38;4965331;28;20047;-76
2023/03/05 03:34:12;;;;;;;1.23;0.10;;;;;;;-1.84;51.75;100212.78;4965138;28;20062;-77
2023/03/05 03:36:39;;;;;;;0.90;0.00;;;;;;;-1.85;51.43;100211.03;4963198;28;20058;-74
2023/03/05 03:39:08;;;;;;;3.45;0.10;;;;;;;-1.86;51.83;100206.75;4965448;28;20057;-75
2023/03/05 03:41:35;;;;;;;1.23;0.10;;;;;;;-1.87;51.75;100215.28;4965422;28;20074;-74
2023/03/05 03:44:03;;;;;;;4.95;0.10;;;;;;;-1.96;52.09;100194.59;4958149;28;20059;-74
2023/03/05 03:46:30;;;;;;;0.20;0.00;;;;;;;-1.93;51.54;100202.34;4960404;28;20047;-74
2023/03/05 03:48:59;;;;;;;0.63;0.00;;;;;;;-1.90;51.69;100207.53;4963074;28;20043;-74
2023/03/05 03:51:26;;;;;;;0.38;0.10;;;;;;;-1.94;51.56;100201.47;4960922;28;20137;-74
2023/03/05 03:53:53;;;;;;;2.35;0.10;;;;;;;-1.97;51.86;100186.03;4962239;28;20055;-74
2023/03/05 03:56:19;;;;;;;0.15;0.10;;;;;;;-1.93;52.10;100195.53;4960356;28;20055;-73
2023/03/05 03:58:46;;;;;;;0.75;0.10;;;;;;;-1.94;51.98;100183.53;4960168;28;20057;-74
2023/03/05 04:01:13;;;;;;;0.95;0.00;;;;;;;-1.93;51.89;100197.22;4960177;28;20047;-73
2023/03/05 04:03:40;;;;;;;0.60;0.00;;;;;;;-1.96;52.00;100187.78;4960458;28;20058;-73
2023/03/05 04:06:08;;;;;;;0.20;0.10;;;;;;;-1.98;51.96;100179.19;4961490;28;20043;-74
2023/03/05 04:08:35;;;;;;;2.08;0.03;;;;;;;-1.98;52.03;100179.19;4960919;28;20051;-74
2023/03/05 04:11:03;;;;;;;1.27;0.00;;;;;;;-2.00;52.06;100183.41;4961925;28;20050;-74
2023/03/05 04:13:30;;;;;;;1.60;0.00;;;;;;;-2.05;52.37;100172.19;4955593;28;20048;-74
2023/03/05 04:15:57;;;;;;;0.47;0.00;;;;;;;-2.00;52.18;100180.00;4962929;28;20145;-75
2023/03/05 04:18:24;;;;;;;0.20;0.00;;;;;;;-2.00;52.21;100182.53;4961342;28;20065;-75
2023/03/05 04:20:51;;;;;;;0.47;0.00;;;;;;;-2.01;52.33;100183.38;4962712;28;20507;-73
2023/03/05 04:23:19;;;;;;;0.10;0.00;;;;;;;-2.03;52.34;100181.63;4964021;28;20054;-74
2023/03/05 04:25:46;;;;;;;0.20;0.00;;;;;;;-2.06;51.79;100168.78;4960488;28;20073;-73
2023/03/05 04:28:13;;;;;;;1.13;0.10;;;;;;;-2.08;52.23;100172.13;4962234;28;20066;-74
2023/03/05 04:30:40;;;;;;;0.35;0.10;;;;;;;-2.06;52.30;100173.03;4960233;28;20147;-74
2023/03/05 04:33:07;;;;;;;2.45;0.00;;;;;;;-2.12;52.49;100166.09;4961371;28;20058;-73
2023/03/05 04:35:34;;;;;;;1.27;0.00;;;;;;;-2.08;52.49;100173.00;4962490;28;20058;-74
2023/03/05 04:38:01;;;;;;;2.47;0.10;;;;;;;-2.09;52.29;100167.84;4961637;28;20065;-74
2023/03/05 04:40:29;;;;;;;1.45;0.00;;;;;;;-2.12;52.46;100163.53;4962635;28;20077;-74
2023/03/05 04:42:56;;;;;;;0.20;0.00;;;;;;;-2.13;52.61;100166.91;4954024;28;20054;-73
2023/03/05 04:45:23;;;;;;;0.10;0.08;;;;;;;-2.15;52.52;100152.34;4959148;28;20058;-74
2023/03/05 04:47:49;;;;;;;0.38;0.00;;;;;;;-2.15;52.70;100160.91;4963718;28;20412;-73
2023/03/05 04:50:16;;;;;;;1.02;0.00;;;;;;;-2.16;52.77;100160.84;4962490;28;20415;-74
2023/03/05 04:52:45;;;;;;;1.30;0.10;;;;;;;-2.15;52.56;100158.34;4956458;28;20930;-74
2023/03/05 04:55:13;;;;;;;1.65;0.00;;;;;;;-2.16;52.80;100151.50;4962285;28;20062;-73
2023/03/05 04:57:42;;;;;;;0.30;0.03;;;;;;;-2.21;52.71;100147.97;4956724;28;20478;-73
2023/03/05 05:00:13;;;;;;;0.73;0.00;;;;;;;-2.16;52.57;100148.06;4958872;28;20055;-74
2023/03/05 05:02:40;;;;;;;1.33;0.00;;;;;;;-2.18;52.82;100140.34;4962393;28;20046;-73
2023/03/05 05:05:07;;;;;;;0.30;0.00;;;;;;;-2.16;52.56;100145.50;4958247;28;20054;-73
2023/03/05 05:07:34;;;;;;;0.00;0.00;;;;;;;-2.18;52.61;100147.19;4957504;28;20049;-73
2023/03/05 05:10:01;;;;;;;1.00;0.00;;;;;;;-2.18;52.69;100148.03;4960853;28;20047;-73
2023/03/05 05:12:29;;;;;;;0.50;0.00;;;;;;;-2.23;52.90;100136.81;4959346;28;20407;-73
2023/03/05 05:14:58;;;;;;;0.05;0.00;;;;;;;-2.18;52.84;100145.47;4961195;28;20070;-72
2023/03/05 05:17:25;;;;;;;2.45;0.00;;;;;;;-2.19;52.86;100143.75;4961178;28;20061;-73
2023/03/05 05:19:53;;;;;;;0.08;0.00;;;;;;;-2.20;52.75;100136.88;4964628;28;20050;-73
2023/03/05 05:22:20;;;;;;;2.35;0.10;;;;;;;-2.19;52.69;100140.31;4960185;28;20065;-73
2023/03/05 05:24:47;;;;;;;3.40;0.10;;;;;;;-2.21;52.79;100147.97;4958174;28;20046;-73
2023/03/05 05:27:14;;;;;;;1.13;0.00;;;;;;;-2.21;52.95;100150.53;4959930;28;20514;-73
2023/03/05 05:29:41;;;;;;;0.52;0.20;;;;;;;-2.22;52.91;100138.56;4961426;28;20074;-73
2023/03/05 05:32:09;;;;;;;1.00;0.00;;;;;;;-2.23;52.96;100144.50;4958891;28;20039;-73
2023/03/05 05:34:36;;;;;;;2.63;0.45;;;;;;;-2.23;52.84;100148.75;4960279;28;20050;-73
2023/03/05 05:37:03;;;;;;;0.43;0.00;;;;;;;-2.24;52.93;100135.09;4956475;28;20051;-73
2023/03/05 05:39:30;;;;;;;3.15;0.00;;;;;;;-2.26;53.03;100140.19;4961090;28;20066;-74
2023/03/05 05:41:57;;;;;;;1.33;0.00;;;;;;;-2.27;53.17;100135.91;4958846;28;20047;-74
2023/03/05 05:44:24;;;;;;;3.42;0.20;;;;;;;-2.28;53.11;100138.41;4955172;28;20043;-73
2023/03/05 05:46:51;;;;;;;1.65;0.00;;;;;;;-2.28;53.21;100135.84;4959361;28;20482;-74
2023/03/05 05:49:19;;;;;;;1.85;0.10;;;;;;;-2.28;53.06;100139.28;4961364;28;20047;-74
2023/03/05 05:51:46;;;;;;;0.00;0.00;;;;;;;-2.28;52.94;100135.84;4959189;28;20072;-73
2023/03/05 05:54:14;;;;;;;0.47;0.00;;;;;;;-2.29;53.29;100134.13;4959928;28;20579;-73
2023/03/05 05:56:41;;;;;;;0.85;0.00;;;;;;;-2.31;53.31;100133.22;4959283;28;20496;-73
2023/03/05 05:59:09;;;;;;;0.20;0.10;;;;;;;-2.31;53.24;100135.78;4958376;28;20046;-73
2023/03/05 06:01:36;;;;;;;0.63;0.10;;;;;;;-2.32;53.59;100137.47;4960836;28;20610;-73
2023/03/05 06:04:04;;;;;;;2.97;0.00;;;;;;;-2.32;53.63;100134.06;4960201;28;20054;-73
2023/03/05 06:06:33;;;;;;;0.52;0.10;;;;;;;-2.31;53.33;100133.22;4958953;28;20047;-73
2023/03/05 06:09:01;;;;;;;3.10;0.08;;;;;;;-2.32;53.36;100127.25;4959205;28;20062;-73
2023/03/05 06:11:28;;;;;;;1.55;0.00;;;;;;;-2.31;53.71;100125.56;4959854;28;20058;-73
2023/03/05 06:13:55;;;;;;;0.38;0.00;;;;;;;-2.31;53.55;100133.22;4960937;28;20090;-74
2023/03/05 06:16:25;;;;;;;0.88;0.00;;;;;;;-2.33;53.62;100124.66;4963112;28;20059;-73
2023/03/05 06:18:52;;;;;;;1.75;0.30;;;;;;;-2.38;53.50;100113.47;4962181;28;20051;-75
2023/03/05 06:21:21;;;;;;;1.75;0.00;;;;;;;-2.34;53.77;100118.66;4964979;28;20047;-73
2023/03/05 06:23:49;;;;;;;0.75;0.00;;;;;;;-2.28;54.05;100129.06;4966537;28;20050;-73
2023/03/05 06:26:18;;;;;;;0.32;0.00;;;;;;;-2.28;53.76;100125.63;4968321;28;20570;-73
2023/03/05 06:28:45;;;;;;;0.77;0.00;;;;;;;-2.32;53.16;100118.72;4960629;28;20053;-73
2023/03/05 06:31:14;;;;;;;0.60;0.00;;;;;;;-2.28;53.78;100123.06;4960430;28;20051;-73
2023/03/05 06:33:42;;;;;;;0.10;0.00;;;;;;;-2.28;53.60;100121.38;4963852;28;20055;-73
2023/03/05 06:36:11;;;;;;;1.08;0.00;;;;;;;-2.24;53.71;100124.88;4962603;28;20079;-73
2023/03/05 06:38:38;;;;;;;1.48;0.00;;;;;;;-2.34;53.75;100099.91;4960489;28;20047;-74
2023/03/05 06:41:10;;;;;;;0.38;0.00;;;;;;;-2.25;53.65;100115.44;4964256;28;20514;-74
2023/03/05 06:43:38;;;;;;;0.38;0.00;;;;;;;-2.25;53.66;100112.88;4959615;28;20357;-74
2023/03/05 06:46:07;;;;;;;1.50;0.00;;;;;;;-2.19;54.00;100125.84;4960213;28;20055;-74
2023/03/05 06:48:34;;;;;;;0.13;0.00;;;;;;;-2.19;53.70;100125.84;4959242;28;20529;-73
2023/03/05 06:51:02;;;;;;;0.47;0.00;;;;;;;-2.18;53.80;100125.00;4959127;28;20047;-76
2023/03/05 06:53:30;;;;;;;0.10;0.10;;;;;;;-2.13;53.63;100131.09;4964496;28;20048;-73
2023/03/05 06:55:57;;;;;;;1.75;0.17;;;;;;;-2.10;53.77;100128.59;4962218;28;20062;-73
2023/03/05 06:58:25;;;;;;;0.20;0.00;;;;;;;-2.08;53.86;100123.50;4961213;28;20058;-73
2023/03/05 07:00:52;;;;;;;0.30;0.00;;;;;;;-2.07;53.78;100127.81;4960393;28;20054;-73
2023/03/05 07:03:19;;;;;;;0.10;0.00;;;;;;;-2.04;53.78;100120.19;4966096;28;20047;-73
2023/03/05 07:05:46;;;;;;;0.00;0.00;;;;;;;-2.06;53.78;100115.03;4960278;28;20134;-73
2023/03/05 07:08:13;;;;;;;0.65;0.03;;;;;;;-1.99;53.84;100115.16;4961452;28;20105;-73
2023/03/05 07:10:42;;;;;;;1.55;0.10;;;;;;;-1.97;53.44;100121.19;4961682;28;20059;-73
2023/03/05 07:13:10;;;;;;;0.25;0.00;;;;;;;-1.96;53.85;100115.25;4962802;28;20057;-73
2023/03/05 07:15:40;;;;;;;0.20;0.00;;;;;;;-1.93;53.64;100120.44;4965529;28;20062;-73
2023/03/05 07:18:07;;;;;;;0.35;0.10;;;;;;;-1.96;53.55;100102.47;4962989;28;20522;-73
2023/03/05 07:20:35;;;;;;;1.77;0.00;;;;;;;-1.96;53.72;100105.88;4963712;28;20499;-73
2023/03/05 07:23:02;;;;;;;0.28;0.08;;;;;;;-1.85;53.89;100118.88;4960351;28;20047;-73
2023/03/05 07:25:29;;;;;;;2.42;0.10;;;;;;;-1.84;53.80;100112.94;4961775;28;20054;-73
2023/03/05 07:27:56;;;;;;;0.03;0.00;;;;;;;-1.81;53.92;100110.44;4961825;28;20242;-73
2023/03/05 07:30:24;;;;;;;0.35;0.05;;;;;;;-1.78;53.67;100107.94;4961587;28;20051;-74
2023/03/05 07:32:52;;;;;;;0.20;0.03;;;;;;;-1.74;53.95;100108.88;4962440;28;20046;-73
2023/03/05 07:35:19;;;;;;;0.10;0.00;;;;;;;-1.71;53.54;100102.09;4961315;28;20059;-74
2023/03/05 07:37:46;;;;;;;2.45;0.00;;;;;;;-1.68;53.54;100102.19;4959848;28;20054;-74
2023/03/05 07:40:13;;;;;;;1.30;0.10;;;;;;;-1.63;53.99;100095.44;4963908;28;20047;-73
2023/03/05 07:42:40;;;;;;;0.50;0.00;;;;;;;-1.58;53.85;100091.28;4963379;28;20054;-73
2023/03/05 07:45:08;;;;;;;0.43;0.00;;;;;;;-1.52;53.87;100099.94;4960659;28;20055;-74
2023/03/05 07:47:35;;;;;;;0.85;0.10;;;;;;;-1.52;53.52;100082.84;4964019;28;20050;-73
2023/03/05 07:50:04;;;;;;;1.02;0.10;;;;;;;-1.39;53.44;100094.22;4963474;28;20166;-73
2023/03/05 07:52:31;;;;;;;3.45;0.10;;;;;;;-1.46;53.43;100071.88;4957612;28;20047;-73
2023/03/05 07:54:58;;;;;;;1.15;0.00;;;;;;;-1.25;53.77;100087.66;4960123;28;20050;-73
2023/03/05 07:57:25;;;;;;;0.00;0.00;;;;;;;-1.18;53.56;100088.59;4962355;28;20055;-75
2023/03/05 07:59:52;;;;;;;0.93;0.00;;;;;;;-1.08;53.42;100089.63;4963326;28;20067;-74
2023/03/05 08:02:19;;;;;;;0.30;0.00;;;;;;;-0.99;53.52;100089.81;4961696;28;20051;-74
2023/03/05 08:04:46;;;;;;;4.80;0.10;;;;;;;-0.91;53.32;100083.97;4961107;28;20474;-74
2023/03/05 08:07:16;;;;;;;0.00;0.00;;;;;;;-0.83;53.55;100091.78;4960130;28;20242;-73
2023/03/05 08:09:43;;;;;;;0.95;0.38;;;;;;;-0.76;53.24;100074.81;4963795;28;20046;-74
2023/03/05 08:12:10;;;;;;;0.38;0.10;;;;;;;-0.70;53.32;100086.00;4961789;28;20059;-74
2023/03/05 08:14:37;;;;;;;0.52;0.00;;;;;;;-0.57;53.45;100079.38;4961294;28;20070;-74
2023/03/05 08:17:05;;;;;;;0.30;0.10;;;;;;;-0.47;52.85;100080.38;4962757;28;20054;-73
2023/03/05 08:19:32;;;;;;;2.55;0.00;;;;;;;-0.38;52.89;100083.06;4957478;28;20043;-72
2023/03/05 08:21:59;;;;;;;1.65;0.00;;;;;;;-0.35;53.04;100075.41;4962665;28;20471;-71
2023/03/05 08:24:29;;;;;;;2.95;0.00;;;;;;;-0.20;53.14;100073.91;4960457;28;20055;-71
2023/03/05 08:26:57;;;;;;;0.57;0.35;;;;;;;-0.17;53.09;100077.41;4962045;28;20089;-70
2023/03/05 08:29:24;;;;;;;0.65;0.10;;;;;;;-0.04;52.75;100069.00;4959927;28;20515;-72
2023/03/05 08:31:52;;;;;;;2.13;0.20;;;;;;;0.04;52.19;100063.97;4959163;28;20051;-72
2023/03/05 08:34:19;;;;;;;1.08;0.03;;;;;;;0.12;52.14;100061.50;4960542;28;20507;-72
2023/03/05 08:36:46;;;;;;;0.50;0.10;;;;;;;0.22;51.71;100060.75;4961327;28;20047;-71
2023/03/05 08:39:13;;;;;;;3.65;0.08;;;;;;;0.30;52.15;100055.72;4959787;28;20047;-71
2023/03/05 08:41:41;;;;;;;2.67;0.22;;;;;;;0.37;52.32;100060.06;4961103;28;20051;-71
2023/03/05 08:44:08;;;;;;;2.20;0.32;;;;;;;0.46;52.27;100047.34;4960612;28;20074;-70
2023/03/05 08:46:35;;;;;;;3.85;0.20;;;;;;;0.54;52.00;100038.00;4954322;28;20054;-70
2023/03/05 08:49:02;;;;;;;1.48;0.10;;;;;;;0.62;51.93;100038.94;4957258;28;20073;-71
2023/03/05 08:51:29;;;;;;;3.20;0.10;;;;;;;0.68;52.07;100038.13;4966041;28;20063;-71
2023/03/05 08:53:58;;;;;;;1.67;0.10;;;;;;;0.75;51.88;100028.78;4957943;28;20043;-72
2023/03/05 08:56:27;;;;;;;0.73;0.00;;;;;;;0.80;51.41;100022.00;4958485;28;20050;-71
2023/03/05 08:58:55;;;;;;;1.95;0.08;;;;;;;0.89;51.68;100022.06;4957357;28;20050;-71
2023/03/05 09:01:22;;;;;;;3.13;0.10;;;;;;;0.96;51.45;100017.81;4952765;28;20051;-71
2023/03/05 09:03:50;;;;;;;0.80;0.10;;;;;;;1.01;51.24;100016.16;4959419;28;20451;-72
2023/03/05 09:06:16;;;;;;;0.45;0.00;;;;;;;1.04;50.77;100009.31;4958921;28;20058;-72
2023/03/05 09:08:43;;;;;;;2.65;0.00;;;;;;;1.11;51.35;100010.22;4956366;28;20043;-71
2023/03/05 09:11:13;;;;;;;2.55;0.10;;;;;;;1.13;51.09;100008.53;4959484;28;20062;-72
2023/03/05 09:13:41;;;;;;;1.77;0.10;;;;;;;1.18;50.90;100008.56;4960108;28;20059;-72
2023/03/05 09:16:12;;;;;;;0.63;0.00;;;;;;;1.24;50.63;100019.75;4955074;28;20055;-72
2023/03/05 09:18:39;;;;;;;0.45;0.15;;;;;;;1.28;50.72;100026.66;4956741;28;20047;-71
2023/03/05 09:21:07;;;;;;;0.52;0.08;;;;;;;1.31;50.76;100026.69;4950558;28;20130;-72
2023/03/05 09:23:34;;;;;;;0.68;0.10;;;;;;;1.32;50.52;100023.25;4954734;28;20050;-72
2023/03/05 09:26:01;;;;;;;0.55;0.08;;;;;;;1.37;50.30;100025.88;4953133;28;20055;-72
2023/03/05 09:28:28;;;;;;;0.20;0.00;;;;;;;1.38;50.61;100026.72;4957868;28;20910;-72
2023/03/05 09:30:55;;;;;;;2.05;0.10;;;;;;;1.38;50.26;100019.84;4956225;28;20516;-71
2023/03/05 09:33:23;;;;;;;0.20;0.10;;;;;;;1.40;50.42;100014.72;4959960;28;20101;-72
2023/03/05 09:35:50;;;;;;;2.63;0.10;;;;;;;1.42;50.19;100019.00;4954160;28;20062;-72
2023/03/05 09:38:18;;;;;;;1.95;0.10;;;;;;;1.43;50.33;100014.75;4955425;28;20790;-72
2023/03/05 09:40:55;;;;;;;7.15;0.20;;;;;;;1.45;50.29;100008.75;4958011;28;20059;-72
2023/03/05 09:43:34;;;;;;;1.83;0.10;;;;;;;1.47;49.96;100007.03;4960729;28;20042;-72
2023/03/05 09:46:13;;;;;;;0.63;0.10;;;;;;;1.49;50.03;100007.91;4962271;28;20064;-72
2023/03/05 09:48:50;;;;;;;1.52;0.10;;;;;;;1.52;49.56;99999.34;4965301;28;20053;-72
2023/03/05 09:51:24;;;;;;;0.50;0.10;;;;;;;1.66;50.46;100005.44;4962586;28;20054;-72
2023/03/05 09:53:59;;;;;;;2.20;0.10;;;;;;;1.74;49.40;99990.91;4955643;28;20989;-72
2023/03/05 09:56:30;;;;;;;0.22;0.10;;;;;;;1.92;49.64;100000.41;4963256;28;20396;-72
2023/03/05 09:59:02;;;;;;;0.45;0.20;;;;;;;1.95;49.87;99990.13;4961897;28;20129;-72
2023/03/05 10:01:34;;;;;;;7.05;0.20;;;;;;;2.05;49.41;99995.28;4963806;28;20046;-72
2023/03/05 10:04:10;;;;;;;1.05;0.20;;;;;;;2.08;49.46;100000.47;4964197;28;20043;-72
2023/03/05 10:06:46;;;;;;;0.50;0.10;;;;;;;2.08;49.14;99991.03;4962847;28;20043;-72
2023/03/05 10:09:21;;;;;;;3.20;0.20;;;;;;;2.09;49.48;99997.03;4964591;28;20050;-72
2023/03/05 10:11:53;;;;;;;3.22;0.28;;;;;;;2.08;49.06;99995.31;4961367;28;20251;-72
2023/03/05 10:14:26;;;;;;;1.83;0.20;;;;;;;2.06;49.31;99997.03;4963457;28;20051;-72
2023/03/05 10:17:24;;;;;;;0.30;0.05;;;;;;;2.05;48.68;99995.28;4964751;28;20441;-72
2023/03/05 10:20:22;;;;;;;1.70;0.10;;;;;;;2.05;49.30;99995.28;4964405;28;20416;-72
2023/03/05 10:23:04;;;;;;;1.80;0.10;;;;;;;2.03;48.80;99996.16;4963230;28;20055;-72
2023/03/05 10:25:50;;;;;;;2.35;0.10;;;;;;;2.04;48.75;99989.28;4966535;28;20058;-72
2023/03/05 10:28:21;;;;;;;3.00;0.10;;;;;;;2.03;48.72;99983.28;4962681;28;20049;-72
2023/03/05 10:31:20;;;;;;;0.13;0.10;;;;;;;2.00;49.30;99988.44;4962511;28;20173;-72
2023/03/05 10:33:58;;;;;;;2.05;0.10;;;;;;;2.02;48.97;99991.88;4944537;28;20062;-71
2023/03/05 10:36:45;;;;;;;2.05;0.10;;;;;;;2.07;49.11;99994.44;4957393;28;20058;-71
2023/03/05 10:39:47;;;;;;;1.15;0.10;;;;;;;2.09;48.81;99989.31;4960059;28;20054;-72
2023/03/05 10:42:24;;;;;;;2.20;0.08;;;;;;;2.08;48.64;99983.31;4949931;28;20129;-72
2023/03/05 10:44:53;;;;;;;1.98;0.10;;;;;;;2.09;48.15;99994.47;4959010;28;20055;-70
2023/03/05 10:47:25;;;;;;;8.30;0.45;;;;;;;2.08;48.76;99985.00;4958759;28;20043;-72
2023/03/05 10:49:54;;;;;;;0.40;0.00;;;;;;;2.09;48.79;99986.75;4960327;28;20062;-72
2023/03/05 10:52:30;;;;;;;0.88;0.05;;;;;;;2.10;48.76;99989.31;4956538;28;20676;-71
2023/03/05 10:54:56;;;;;;;1.00;0.35;;;;;;;2.05;48.29;99969.53;4957703;28;20051;-71
2023/03/05 10:57:25;;;;;;;7.70;0.10;;;;;;;2.14;48.68;99985.03;4959391;28;20057;-72
2023/03/05 10:59:54;;;;;;;2.65;0.20;;;;;;;2.15;48.29;99986.75;4956550;28;20050;-72
2023/03/05 11:02:22;;;;;;;2.45;0.00;;;;;;;2.15;48.51;99979.03;4960072;28;20507;-72
2023/03/05 11:04:49;;;;;;;1.75;0.00;;;;;;;2.16;48.55;99975.59;4957506;28;20051;-72
2023/03/05 11:07:40;;;;;;;0.10;0.00;;;;;;;2.18;48.50;99979.03;4963195;28;20051;-72
2023/03/05 11:10:20;;;;;;;1.58;0.05;;;;;;;2.17;48.76;99974.75;4958692;28;20061;-72
2023/03/05 11:12:47;;;;;;;0.75;0.00;;;;;;;2.19;48.15;99973.00;4959140;28;20152;-72
2023/03/05 11:15:30;;;;;;;2.90;0.10;;;;;;;2.19;47.96;99968.75;4957315;28;20062;-72
2023/03/05 11:18:23;;;;;;;0.65;0.10;;;;;;;2.18;48.33;99961.84;4958107;28;20057;-72
2023/03/05 11:20:50;;;;;;;1.38;0.00;;;;;;;2.19;48.18;99963.59;4945909;28;20051;-72
2023/03/05 11:23:22;;;;;;;3.03;0.10;;;;;;;2.19;47.63;99958.44;4959277;28;20047;-72
2023/03/05 11:26:18;;;;;;;5.78;0.00;;;;;;;2.19;48.37;99955.88;4955552;28;20051;-72
2023/03/05 11:28:57;;;;;;;3.92;0.10;;;;;;;2.19;48.52;99957.56;4958756;28;20432;-72
2023/03/05 11:31:25;;;;;;;8.02;0.10;;;;;;;2.19;48.04;99953.28;4959528;28;20057;-72
2023/03/05 11:33:59;;;;;;;0.22;0.10;;;;;;;2.21;48.28;99961.00;4961286;28;20050;-72
2023/03/05 11:36:29;;;;;;;2.08;0.10;;;;;;;2.20;47.90;99952.41;4957572;28;20066;-71
2023/03/05 11:39:01;;;;;;;3.40;0.28;;;;;;;2.21;47.77;99950.69;4961828;28;20062;-71